sensor_id;sensor_type;location;lat;lon;timestamp;pressure;altitude;pressure_sealevel;temperature;humidity
31121;BME280;17770;45.966;13.632;2023-02-21T00:00:14;101284.00;;;15.97;61.79
31121;BME280;17770;45.966;13.632;2023-02-21T00:02:59;101277.94;;;15.97;61.79
31121;BME280;17770;45.966;13.632;2023-02-21T00:05:44;101279.78;;;15.95;61.63
31121;BME280;17770;45.966;13.632;2023-02-21T00:08:28;101281.44;;;15.96;62.03
31121;BME280;17770;45.966;13.632;2023-02-21T00:11:13;101283.19;;;15.95;61.76
31121;BME280;17770;45.966;13.632;2023-02-21T00:13:57;101284.13;;;15.94;61.76
31121;BME280;17770;45.966;13.632;2023-02-21T00:16:41;101282.44;;;15.93;61.41
31121;BME280;17770;45.966;13.632;2023-02-21T00:19:26;101277.22;;;15.93;61.98
31121;BME280;17770;45.966;13.632;2023-02-21T00:22:10;101268.56;;;15.93;61.64
31121;BME280;17770;45.966;13.632;2023-02-21T00:24:54;101269.44;;;15.92;62.05
31121;BME280;17770;45.966;13.632;2023-02-21T00:27:38;101275.50;;;15.92;62.07
31121;BME280;17770;45.966;13.632;2023-02-21T00:30:23;101273.81;;;15.91;62.03
31121;BME280;17770;45.966;13.632;2023-02-21T00:33:07;101265.16;;;15.91;61.39
31121;BME280;17770;45.966;13.632;2023-02-21T00:35:51;101271.28;;;15.90;61.79
31121;BME280;17770;45.966;13.632;2023-02-21T00:38:36;101268.75;;;15.88;61.66
31121;BME280;17770;45.966;13.632;2023-02-21T00:41:21;101269.63;;;15.87;62.12
31121;BME280;17770;45.966;13.632;2023-02-21T00:44:05;101272.16;;;15.89;61.81
31121;BME280;17770;45.966;13.632;2023-02-21T00:46:50;101266.16;;;15.87;61.53
31121;BME280;17770;45.966;13.632;2023-02-21T00:49:34;101271.38;;;15.87;61.77
31121;BME280;17770;45.966;13.632;2023-02-21T00:52:18;101262.81;;;15.85;62.00
31121;BME280;17770;45.966;13.632;2023-02-21T00:55:03;101273.16;;;15.86;62.05
31121;BME280;17770;45.966;13.632;2023-02-21T00:57:47;101281.06;;;15.83;61.72
31121;BME280;17770;45.966;13.632;2023-02-21T01:00:32;101275.88;;;15.83;61.65
31121;BME280;17770;45.966;13.632;2023-02-21T01:03:16;101285.41;;;15.83;61.84
31121;BME280;17770;45.966;13.632;2023-02-21T01:06:00;101278.53;;;15.82;62.04
31121;BME280;17770;45.966;13.632;2023-02-21T01:08:45;101281.13;;;15.82;61.81
31121;BME280;17770;45.966;13.632;2023-02-21T01:11:30;101275.91;;;15.82;62.18
31121;BME280;17770;45.966;13.632;2023-02-21T01:14:15;101268.13;;;15.82;62.12
31121;BME280;17770;45.966;13.632;2023-02-21T01:17:00;101269.91;;;15.80;61.26
31121;BME280;17770;45.966;13.632;2023-02-21T01:19:44;101265.53;;;15.80;61.55
31121;BME280;17770;45.966;13.632;2023-02-21T01:22:28;101257.75;;;15.80;61.60
31121;BME280;17770;45.966;13.632;2023-02-21T01:25:13;101260.41;;;15.79;62.01
31121;BME280;17770;45.966;13.632;2023-02-21T01:27:58;101259.56;;;15.78;61.86
31121;BME280;17770;45.966;13.632;2023-02-21T01:30:42;101259.56;;;15.78;61.55
31121;BME280;17770;45.966;13.632;2023-02-21T01:33:33;101257.84;;;15.77;61.47
31121;BME280;17770;45.966;13.632;2023-02-21T01:36:17;101260.47;;;15.77;61.37
31121;BME280;17770;45.966;13.632;2023-02-21T01:39:01;101264.84;;;15.75;61.83
31121;BME280;17770;45.966;13.632;2023-02-21T01:41:45;101254.47;;;15.75;61.47
31121;BME280;17770;45.966;13.632;2023-02-21T01:44:40;101248.44;;;15.75;61.89
31121;BME280;17770;45.966;13.632;2023-02-21T01:47:25;101252.84;;;15.73;61.71
31121;BME280;17770;45.966;13.632;2023-02-21T01:50:14;101239.81;;;15.73;61.32
31121;BME280;17770;45.966;13.632;2023-02-21T01:53:00;101237.16;;;15.74;61.43
31121;BME280;17770;45.966;13.632;2023-02-21T01:55:46;101235.50;;;15.73;61.38
31121;BME280;17770;45.966;13.632;2023-02-21T01:58:30;101230.34;;;15.72;61.79
31121;BME280;17770;45.966;13.632;2023-02-21T02:01:19;101233.78;;;15.72;62.05
31121;BME280;17770;45.966;13.632;2023-02-21T02:04:04;101230.38;;;15.70;61.73
31121;BME280;17770;45.966;13.632;2023-02-21T02:06:49;101232.97;;;15.70;61.47
31121;BME280;17770;45.966;13.632;2023-02-21T02:09:34;101227.81;;;15.68;61.27
31121;BME280;17770;45.966;13.632;2023-02-21T02:45:22;101200.31;;;15.63;61.48
31121;BME280;17770;45.966;13.632;2023-02-21T02:47:52;101200.31;;;15.63;61.23
31121;BME280;17770;45.966;13.632;2023-02-21T02:50:20;101203.81;;;15.62;61.14
31121;BME280;17770;45.966;13.632;2023-02-21T02:52:54;101194.25;;;15.62;61.38
31121;BME280;17770;45.966;13.632;2023-02-21T02:57:59;101193.53;;;15.59;61.38
31121;BME280;17770;45.966;13.632;2023-02-21T03:00:26;101183.13;;;15.59;61.58
31121;BME280;17770;45.966;13.632;2023-02-21T03:05:21;101181.44;;;15.58;61.72
31121;BME280;17770;45.966;13.632;2023-02-21T03:15:38;101171.91;;;15.57;61.39
31121;BME280;17770;45.966;13.632;2023-02-21T03:18:12;101161.53;;;15.57;61.59
31121;BME280;17770;45.966;13.632;2023-02-21T03:20:40;101162.44;;;15.56;61.30
31121;BME280;17770;45.966;13.632;2023-02-21T03:23:08;101162.44;;;15.56;61.18
31121;BME280;17770;45.966;13.632;2023-02-21T03:25:35;101163.34;;;15.55;61.11
31121;BME280;17770;45.966;13.632;2023-02-21T03:28:03;101157.31;;;15.54;61.04
31121;BME280;17770;45.966;13.632;2023-02-21T03:30:40;101164.19;;;15.55;61.05
31121;BME280;17770;45.966;13.632;2023-02-21T03:33:07;101166.84;;;15.54;61.06
31121;BME280;17770;45.966;13.632;2023-02-21T03:35:33;101165.97;;;15.55;61.34
31121;BME280;17770;45.966;13.632;2023-02-21T03:37:59;101166.91;;;15.52;61.67
31121;BME280;17770;45.966;13.632;2023-02-21T03:40:29;101167.75;;;15.53;61.17
31121;BME280;17770;45.966;13.632;2023-02-21T03:42:58;101159.09;;;15.52;61.39
31121;BME280;17770;45.966;13.632;2023-02-21T03:45:26;101156.50;;;15.52;61.63
31121;BME280;17770;45.966;13.632;2023-02-21T03:48:12;101140.97;;;15.51;61.20
31121;BME280;17770;45.966;13.632;2023-02-21T03:50:39;101141.81;;;15.51;61.41
31121;BME280;17770;45.966;13.632;2023-02-21T03:53:05;101139.28;;;15.50;61.49
31121;BME280;17770;45.966;13.632;2023-02-21T03:55:32;101138.44;;;15.49;61.20
31121;BME280;17770;45.966;13.632;2023-02-21T03:58:00;101134.91;;;15.50;61.68
31121;BME280;17770;45.966;13.632;2023-02-21T04:00:27;101141.94;;;15.48;61.40
31121;BME280;17770;45.966;13.632;2023-02-21T04:02:54;101149.75;;;15.48;61.53
31121;BME280;17770;45.966;13.632;2023-02-21T04:05:47;101147.97;;;15.49;61.47
31121;BME280;17770;45.966;13.632;2023-02-21T04:08:13;101150.56;;;15.49;61.31
31121;BME280;17770;45.966;13.632;2023-02-21T04:10:39;101135.88;;;15.48;61.58
31121;BME280;17770;45.966;13.632;2023-02-21T04:13:06;101138.59;;;15.45;61.30
31121;BME280;17770;45.966;13.632;2023-02-21T04:15:38;101142.81;;;15.47;61.73
31121;BME280;17770;45.966;13.632;2023-02-21T04:18:04;101147.16;;;15.47;61.63
31121;BME280;17770;45.966;13.632;2023-02-21T04:20:30;101148.88;;;15.48;61.22
31121;BME280;17770;45.966;13.632;2023-02-21T04:22:58;101141.19;;;15.45;61.07
31121;BME280;17770;45.966;13.632;2023-02-21T04:25:24;101135.16;;;15.44;61.04
31121;BME280;17770;45.966;13.632;2023-02-21T04:27:56;101143.75;;;15.46;61.23
31121;BME280;17770;45.966;13.632;2023-02-21T04:30:22;101141.19;;;15.45;61.68
31121;BME280;17770;45.966;13.632;2023-02-21T04:32:49;101133.41;;;15.45;61.05
31121;BME280;17770;45.966;13.632;2023-02-21T04:35:15;101129.09;;;15.44;61.25
31121;BME280;17770;45.966;13.632;2023-02-21T04:37:42;101129.09;;;15.44;61.24
31121;BME280;17770;45.966;13.632;2023-02-21T04:40:10;101120.47;;;15.43;61.43
31121;BME280;17770;45.966;13.632;2023-02-21T04:42:36;101120.47;;;15.43;61.19
31121;BME280;17770;45.966;13.632;2023-02-21T04:45:02;101124.69;;;15.46;61.40
31121;BME280;17770;45.966;13.632;2023-02-21T04:47:28;101123.88;;;15.44;60.92
31121;BME280;17770;45.966;13.632;2023-02-21T04:49:54;101113.50;;;15.44;61.42
31121;BME280;17770;45.966;13.632;2023-02-21T04:52:20;101117.00;;;15.43;61.38
31121;BME280;17770;45.966;13.632;2023-02-21T04:54:46;101111.88;;;15.41;61.57
31121;BME280;17770;45.966;13.632;2023-02-21T04:57:12;101111.81;;;15.43;61.47
31121;BME280;17770;45.966;13.632;2023-02-21T04:59:38;101111.81;;;15.43;61.27
31121;BME280;17770;45.966;13.632;2023-02-21T05:02:04;101108.34;;;15.42;60.88
31121;BME280;17770;45.966;13.632;2023-02-21T05:04:30;101103.22;;;15.41;60.95
31121;BME280;17770;45.966;13.632;2023-02-21T05:06:59;101097.16;;;15.40;60.90
31121;BME280;17770;45.966;13.632;2023-02-21T05:09:25;101094.53;;;15.42;61.17
31121;BME280;17770;45.966;13.632;2023-02-21T05:11:51;101095.50;;;15.38;61.51
31121;BME280;17770;45.966;13.632;2023-02-21T05:14:17;101098.94;;;15.40;61.18
31121;BME280;17770;45.966;13.632;2023-02-21T05:16:43;101102.41;;;15.39;61.54
31121;BME280;17770;45.966;13.632;2023-02-21T05:19:09;101098.09;;;15.39;61.13
31121;BME280;17770;45.966;13.632;2023-02-21T05:21:35;101097.22;;;15.39;61.04
31121;BME280;17770;45.966;13.632;2023-02-21T05:24:06;101104.22;;;15.37;61.22
31121;BME280;17770;45.966;13.632;2023-02-21T05:26:33;101100.72;;;15.38;61.21
31121;BME280;17770;45.966;13.632;2023-02-21T05:28:59;101101.63;;;15.37;61.17
31121;BME280;17770;45.966;13.632;2023-02-21T05:31:25;101099.03;;;15.37;61.17
31121;BME280;17770;45.966;13.632;2023-02-21T05:33:51;101105.03;;;15.37;60.94
31121;BME280;17770;45.966;13.632;2023-02-21T05:36:17;101103.31;;;15.38;60.75
31121;BME280;17770;45.966;13.632;2023-02-21T05:38:43;101106.81;;;15.37;61.21
31121;BME280;17770;45.966;13.632;2023-02-21T05:41:10;101105.97;;;15.36;61.34
31121;BME280;17770;45.966;13.632;2023-02-21T05:43:36;101114.63;;;15.37;61.44
31121;BME280;17770;45.966;13.632;2023-02-21T05:46:02;101106.84;;;15.35;61.10
31121;BME280;17770;45.966;13.632;2023-02-21T05:48:28;101106.84;;;15.35;61.62
31121;BME280;17770;45.966;13.632;2023-02-21T05:50:53;101103.44;;;15.35;61.64
31121;BME280;17770;45.966;13.632;2023-02-21T05:53:19;101096.44;;;15.35;61.39
31121;BME280;17770;45.966;13.632;2023-02-21T05:55:45;101110.31;;;15.36;61.07
31121;BME280;17770;45.966;13.632;2023-02-21T05:58:11;101105.16;;;15.34;61.34
31121;BME280;17770;45.966;13.632;2023-02-21T06:00:37;101106.03;;;15.35;60.92
31121;BME280;17770;45.966;13.632;2023-02-21T06:03:02;101105.16;;;15.34;61.09
31121;BME280;17770;45.966;13.632;2023-02-21T06:05:28;101111.28;;;15.33;61.24
31121;BME280;17770;45.966;13.632;2023-02-21T06:07:54;101116.47;;;15.33;61.44
31121;BME280;17770;45.966;13.632;2023-02-21T06:10:20;101118.16;;;15.34;61.44
31121;BME280;17770;45.966;13.632;2023-02-21T06:12:46;101119.06;;;15.33;61.01
31121;BME280;17770;45.966;13.632;2023-02-21T06:15:12;101120.81;;;15.33;60.84
31121;BME280;17770;45.966;13.632;2023-02-21T06:17:39;101129.47;;;15.33;61.32
31121;BME280;17770;45.966;13.632;2023-02-21T06:20:05;101134.66;;;15.33;61.33
31121;BME280;17770;45.966;13.632;2023-02-21T06:22:31;101141.59;;;15.33;61.22
31121;BME280;17770;45.966;13.632;2023-02-21T06:24:57;101144.25;;;15.31;61.31
31121;BME280;17770;45.966;13.632;2023-02-21T06:27:23;101149.41;;;15.33;61.27
31121;BME280;17770;45.966;13.632;2023-02-21T06:29:49;101148.53;;;15.32;61.24
31121;BME280;17770;45.966;13.632;2023-02-21T06:32:14;101151.19;;;15.31;61.34
31121;BME280;17770;45.966;13.632;2023-02-21T06:34:42;101151.16;;;15.32;60.92
31121;BME280;17770;45.966;13.632;2023-02-21T06:37:07;101156.41;;;15.31;61.12
31121;BME280;17770;45.966;13.632;2023-02-21T06:39:33;101158.94;;;15.32;61.06
31121;BME280;17770;45.966;13.632;2023-02-21T06:41:59;101156.41;;;15.31;61.08
31121;BME280;17770;45.966;13.632;2023-02-21T06:44:25;101167.66;;;15.31;61.07
31121;BME280;17770;45.966;13.632;2023-02-21T06:46:51;101160.75;;;15.30;61.04
31121;BME280;17770;45.966;13.632;2023-02-21T06:49:19;101159.00;;;15.31;61.30
31121;BME280;17770;45.966;13.632;2023-02-21T06:51:45;101159.06;;;15.29;61.38
31121;BME280;17770;45.966;13.632;2023-02-21T06:54:11;101165.94;;;15.30;61.12
31121;BME280;17770;45.966;13.632;2023-02-21T06:56:37;101170.31;;;15.30;61.44
31121;BME280;17770;45.966;13.632;2023-02-21T06:59:03;101169.44;;;15.29;61.04
31121;BME280;17770;45.966;13.632;2023-02-21T07:01:29;101175.56;;;15.28;61.52
31121;BME280;17770;45.966;13.632;2023-02-21T07:03:56;101179.00;;;15.29;61.31
31121;BME280;17770;45.966;13.632;2023-02-21T07:06:22;101179.91;;;15.28;61.60
31121;BME280;17770;45.966;13.632;2023-02-21T07:08:48;101190.25;;;15.29;61.34
31121;BME280;17770;45.966;13.632;2023-02-21T07:11:14;101181.53;;;15.30;61.07
31121;BME280;17770;45.966;13.632;2023-02-21T07:13:40;101183.38;;;15.28;61.59
31121;BME280;17770;45.966;13.632;2023-02-21T07:16:06;101186.78;;;15.29;60.94
31121;BME280;17770;45.966;13.632;2023-02-21T07:18:32;101188.50;;;15.30;61.52
31121;BME280;17770;45.966;13.632;2023-02-21T07:20:58;101185.91;;;15.30;61.12
31121;BME280;17770;45.966;13.632;2023-02-21T07:23:24;101173.84;;;15.27;61.08
31121;BME280;17770;45.966;13.632;2023-02-21T07:25:50;101185.09;;;15.28;61.08
31121;BME280;17770;45.966;13.632;2023-02-21T07:28:16;101188.50;;;15.30;60.93
31121;BME280;17770;45.966;13.632;2023-02-21T07:30:42;101191.16;;;15.28;60.95
31121;BME280;17770;45.966;13.632;2023-02-21T07:33:08;101187.69;;;15.28;60.98
31121;BME280;17770;45.966;13.632;2023-02-21T07:35:33;101186.84;;;15.27;61.08
31121;BME280;17770;45.966;13.632;2023-02-21T07:37:59;101187.69;;;15.28;61.05
31121;BME280;17770;45.966;13.632;2023-02-21T07:40:25;101192.91;;;15.28;61.16
31121;BME280;17770;45.966;13.632;2023-02-21T07:42:51;101191.22;;;15.27;61.35
31121;BME280;17770;45.966;13.632;2023-02-21T07:45:17;101192.03;;;15.27;61.37
31121;BME280;17770;45.966;13.632;2023-02-21T07:47:46;101194.63;;;15.27;61.35
31121;BME280;17770;45.966;13.632;2023-02-21T07:50:11;101196.41;;;15.27;61.07
31121;BME280;17770;45.966;13.632;2023-02-21T07:52:37;101201.59;;;15.27;61.41
31121;BME280;17770;45.966;13.632;2023-02-21T07:55:03;101198.16;;;15.26;61.19
31121;BME280;17770;45.966;13.632;2023-02-21T07:57:29;101199.84;;;15.27;61.23
31121;BME280;17770;45.966;13.632;2023-02-21T07:59:55;101204.22;;;15.27;61.23
31121;BME280;17770;45.966;13.632;2023-02-21T08:02:21;101196.41;;;15.27;61.10
31121;BME280;17770;45.966;13.632;2023-02-21T08:04:50;101206.81;;;15.27;61.40
31121;BME280;17770;45.966;13.632;2023-02-21T08:07:16;101206.81;;;15.27;61.66
31121;BME280;17770;45.966;13.632;2023-02-21T08:09:42;101205.94;;;15.26;61.26
31121;BME280;17770;45.966;13.632;2023-02-21T08:12:08;101205.94;;;15.26;61.32
31121;BME280;17770;45.966;13.632;2023-02-21T08:14:34;101204.22;;;15.27;61.10
31121;BME280;17770;45.966;13.632;2023-02-21T08:17:00;101202.50;;;15.26;61.23
31121;BME280;17770;45.966;13.632;2023-02-21T08:19:25;101197.28;;;15.26;61.04
31121;BME280;17770;45.966;13.632;2023-02-21T08:21:51;101200.75;;;15.26;60.89
31121;BME280;17770;45.966;13.632;2023-02-21T08:24:17;101195.56;;;15.26;61.70
31121;BME280;17770;45.966;13.632;2023-02-21T08:26:43;101194.69;;;15.26;61.07
31121;BME280;17770;45.966;13.632;2023-02-21T08:29:10;101205.94;;;15.26;61.10
31121;BME280;17770;45.966;13.632;2023-02-21T08:31:40;101202.56;;;15.24;61.17
31121;BME280;17770;45.966;13.632;2023-02-21T08:34:06;101199.06;;;15.25;61.40
31121;BME280;17770;45.966;13.632;2023-02-21T08:36:34;101201.69;;;15.24;60.88
31121;BME280;17770;45.966;13.632;2023-02-21T08:39:00;101204.25;;;15.25;61.08
31121;BME280;17770;45.966;13.632;2023-02-21T08:41:33;101199.09;;;15.24;61.33
31121;BME280;17770;45.966;13.632;2023-02-21T08:44:00;101194.75;;;15.24;61.20
31121;BME280;17770;45.966;13.632;2023-02-21T08:46:26;101193.91;;;15.24;61.24
31121;BME280;17770;45.966;13.632;2023-02-21T08:48:51;101199.94;;;15.24;61.33
31121;BME280;17770;45.966;13.632;2023-02-21T08:51:17;101206.88;;;15.24;61.33
31121;BME280;17770;45.966;13.632;2023-02-21T08:53:43;101211.25;;;15.23;61.09
31121;BME280;17770;45.966;13.632;2023-02-21T08:56:09;101201.69;;;15.24;61.05
31121;BME280;17770;45.966;13.632;2023-02-21T08:58:35;101212.09;;;15.24;61.17
31121;BME280;17770;45.966;13.632;2023-02-21T09:01:01;101207.75;;;15.24;61.39
31121;BME280;17770;45.966;13.632;2023-02-21T09:03:27;101209.50;;;15.24;61.43
31121;BME280;17770;45.966;13.632;2023-02-21T09:05:53;101214.69;;;15.24;61.17
31121;BME280;17770;45.966;13.632;2023-02-21T09:08:18;101208.59;;;15.25;61.12
31121;BME280;17770;45.966;13.632;2023-02-21T09:10:46;101205.19;;;15.23;61.04
31121;BME280;17770;45.966;13.632;2023-02-21T09:13:13;101201.69;;;15.24;61.03
31121;BME280;17770;45.966;13.632;2023-02-21T09:15:38;101211.19;;;15.25;60.82
31121;BME280;17770;45.966;13.632;2023-02-21T09:18:05;101196.50;;;15.24;61.59
31121;BME280;17770;45.966;13.632;2023-02-21T09:20:31;101208.66;;;15.23;61.49
31121;BME280;17770;45.966;13.632;2023-02-21T09:22:57;101213.84;;;15.23;61.03
31121;BME280;17770;45.966;13.632;2023-02-21T09:25:23;101207.81;;;15.23;61.07
31121;BME280;17770;45.966;13.632;2023-02-21T09:27:50;101203.47;;;15.23;61.49
31121;BME280;17770;45.966;13.632;2023-02-21T09:30:20;101200.88;;;15.23;61.30
31121;BME280;17770;45.966;13.632;2023-02-21T09:32:48;101195.66;;;15.23;60.89
31121;BME280;17770;45.966;13.632;2023-02-21T09:35:14;101193.13;;;15.22;61.26
31121;BME280;17770;45.966;13.632;2023-02-21T09:37:41;101195.63;;;15.25;61.25
31121;BME280;17770;45.966;13.632;2023-02-21T09:40:41;101191.34;;;15.22;61.00
31121;BME280;17770;45.966;13.632;2023-02-21T09:42:59;101189.63;;;15.23;61.18
31121;BME280;17770;45.966;13.632;2023-02-21T09:45:30;101190.47;;;15.23;61.09
31121;BME280;17770;45.966;13.632;2023-02-21T09:47:56;101187.88;;;15.23;60.79
31121;BME280;17770;45.966;13.632;2023-02-21T09:50:27;101189.63;;;15.23;61.12
31121;BME280;17770;45.966;13.632;2023-02-21T09:52:58;101194.81;;;15.23;61.50
31121;BME280;17770;45.966;13.632;2023-02-21T09:55:28;101180.06;;;15.23;61.00
31121;BME280;17770;45.966;13.632;2023-02-21T09:57:56;101185.28;;;15.23;61.33
31121;BME280;17770;45.966;13.632;2023-02-21T10:00:28;101187.81;;;15.25;61.18
31121;BME280;17770;45.966;13.632;2023-02-21T10:05:32;101185.28;;;15.23;61.51
31121;BME280;17770;45.966;13.632;2023-02-21T10:10:31;101184.41;;;15.23;61.00
31121;BME280;17770;45.966;13.632;2023-02-21T10:18:05;101191.28;;;15.24;61.16
31121;BME280;17770;45.966;13.632;2023-02-21T10:20:52;101189.63;;;15.23;61.40
31121;BME280;17770;45.966;13.632;2023-02-21T10:23:34;101186.16;;;15.22;61.01
31121;BME280;17770;45.966;13.632;2023-02-21T10:26:03;101185.28;;;15.23;61.03
31121;BME280;17770;45.966;13.632;2023-02-21T10:28:31;101184.41;;;15.23;61.42
31121;BME280;17770;45.966;13.632;2023-02-21T10:30:58;101187.00;;;15.23;61.23
31121;BME280;17770;45.966;13.632;2023-02-21T10:33:25;101177.47;;;15.23;60.96
31121;BME280;17770;45.966;13.632;2023-02-21T10:35:51;101180.97;;;15.22;60.93
31121;BME280;17770;45.966;13.632;2023-02-21T10:38:20;101177.47;;;15.23;61.00
31121;BME280;17770;45.966;13.632;2023-02-21T10:40:52;101177.41;;;15.25;61.21
31121;BME280;17770;45.966;13.632;2023-02-21T10:43:37;101173.97;;;15.24;61.16
31121;BME280;17770;45.966;13.632;2023-02-21T10:48:42;101174.81;;;15.25;61.08
31121;BME280;17770;45.966;13.632;2023-02-21T10:51:17;101170.47;;;15.25;61.06
31121;BME280;17770;45.966;13.632;2023-02-21T10:53:52;101169.63;;;15.25;60.84
31121;BME280;17770;45.966;13.632;2023-02-21T10:56:19;101162.69;;;15.25;61.41
31121;BME280;17770;45.966;13.632;2023-02-21T11:01:48;101161.84;;;15.25;61.41
31121;BME280;17770;45.966;13.632;2023-02-21T11:04:21;101153.13;;;15.26;61.26
31121;BME280;17770;45.966;13.632;2023-02-21T11:06:49;101155.72;;;15.26;60.95
31121;BME280;17770;45.966;13.632;2023-02-21T11:09:38;101153.13;;;15.26;60.80
31121;BME280;17770;45.966;13.632;2023-02-21T11:14:31;101145.31;;;15.26;60.85
31121;BME280;17770;45.966;13.632;2023-02-21T11:19:40;101139.25;;;15.27;61.04
31121;BME280;17770;45.966;13.632;2023-02-21T11:22:06;101134.03;;;15.27;60.90
31121;BME280;17770;45.966;13.632;2023-02-21T11:24:43;101137.59;;;15.24;61.02
31121;BME280;17770;45.966;13.632;2023-02-21T11:27:09;101135.72;;;15.28;60.84
31121;BME280;17770;45.966;13.632;2023-02-21T11:29:36;101126.19;;;15.28;61.11
31121;BME280;17770;45.966;13.632;2023-02-21T11:32:18;101127.03;;;15.29;61.15
31121;BME280;17770;45.966;13.632;2023-02-21T11:34:45;101127.06;;;15.27;60.91
31121;BME280;17770;45.966;13.632;2023-02-21T11:37:13;101113.97;;;15.30;61.05
31121;BME280;17770;45.966;13.632;2023-02-21T11:39:39;101116.63;;;15.29;61.01
31121;BME280;17770;45.966;13.632;2023-02-21T11:45:00;101111.44;;;15.29;61.15
31121;BME280;17770;45.966;13.632;2023-02-21T11:47:33;101111.44;;;15.29;61.29
31121;BME280;17770;45.966;13.632;2023-02-21T11:55:15;101105.34;;;15.30;60.93
31121;BME280;17770;45.966;13.632;2023-02-21T12:03:22;101091.44;;;15.31;61.10
31121;BME280;17770;45.966;13.632;2023-02-21T12:21:37;101068.03;;;15.31;61.08
31121;BME280;17770;45.966;13.632;2023-02-21T12:26:45;101065.44;;;15.31;61.05
31121;BME280;17770;45.966;13.632;2023-02-21T12:32:10;101062.72;;;15.34;61.44
31121;BME280;17770;45.966;13.632;2023-02-21T12:42:48;101051.50;;;15.33;61.07
31121;BME280;17770;45.966;13.632;2023-02-21T12:45:27;101048.00;;;15.34;61.09
31121;BME280;17770;45.966;13.632;2023-02-21T12:50:35;101033.25;;;15.35;61.36
31121;BME280;17770;45.966;13.632;2023-02-21T12:53:11;101031.47;;;15.35;61.00
31121;BME280;17770;45.966;13.632;2023-02-21T12:55:39;101030.66;;;15.35;60.89
31121;BME280;17770;45.966;13.632;2023-02-21T13:00:43;101020.19;;;15.36;61.11
31121;BME280;17770;45.966;13.632;2023-02-21T13:05:44;101013.25;;;15.37;61.34
31121;BME280;17770;45.966;13.632;2023-02-21T13:13:32;101009.75;;;15.38;61.39
31121;BME280;17770;45.966;13.632;2023-02-21T13:16:02;101004.53;;;15.38;61.29
31121;BME280;17770;45.966;13.632;2023-02-21T13:18:31;101006.25;;;15.39;61.54
31121;BME280;17770;45.966;13.632;2023-02-21T13:29:31;100990.59;;;15.40;61.13
31121;BME280;17770;45.966;13.632;2023-02-21T13:34:30;100983.66;;;15.41;61.01
31121;BME280;17770;45.966;13.632;2023-02-21T13:37:07;100980.19;;;15.42;61.27
31121;BME280;17770;45.966;13.632;2023-02-21T13:39:33;100978.47;;;15.41;61.22
31121;BME280;17770;45.966;13.632;2023-02-21T13:42:04;100974.19;;;15.40;61.49
31121;BME280;17770;45.966;13.632;2023-02-21T13:44:36;100979.25;;;15.43;61.10
31121;BME280;17770;45.966;13.632;2023-02-21T13:57:33;100978.34;;;15.44;61.44
31121;BME280;17770;45.966;13.632;2023-02-21T14:00:27;100969.66;;;15.45;61.20
31121;BME280;17770;45.966;13.632;2023-02-21T14:03:00;100967.94;;;15.44;61.70
31121;BME280;17770;45.966;13.632;2023-02-21T14:08:34;100954.94;;;15.44;61.69
31121;BME280;17770;45.966;13.632;2023-02-21T14:10:58;100954.94;;;15.44;61.10
31121;BME280;17770;45.966;13.632;2023-02-21T14:15:56;100952.22;;;15.47;61.16
31121;BME280;17770;45.966;13.632;2023-02-21T14:18:30;100952.22;;;15.47;61.28
31121;BME280;17770;45.966;13.632;2023-02-21T14:21:01;100954.00;;;15.46;61.24
31121;BME280;17770;45.966;13.632;2023-02-21T14:23:35;100947.88;;;15.47;61.54
31121;BME280;17770;45.966;13.632;2023-02-21T14:26:03;100947.88;;;15.47;61.55
31121;BME280;17770;45.966;13.632;2023-02-21T14:34:29;100951.31;;;15.48;61.08
31121;BME280;17770;45.966;13.632;2023-02-21T14:36:58;100952.13;;;15.50;61.68
31121;BME280;17770;45.966;13.632;2023-02-21T14:39:33;100951.25;;;15.49;61.47
31121;BME280;17770;45.966;13.632;2023-02-21T14:42:07;100948.66;;;15.49;61.57
31121;BME280;17770;45.966;13.632;2023-02-21T14:44:39;100948.59;;;15.51;61.59
31121;BME280;17770;45.966;13.632;2023-02-21T15:00:05;100945.03;;;15.53;61.70
31121;BME280;17770;45.966;13.632;2023-02-21T15:02:48;100944.19;;;15.53;61.45
31121;BME280;17770;45.966;13.632;2023-02-21T15:05:16;100936.47;;;15.51;61.36
31121;BME280;17770;45.966;13.632;2023-02-21T15:10:14;100934.69;;;15.52;61.27
31121;BME280;17770;45.966;13.632;2023-02-21T15:13:18;100938.94;;;15.54;61.81
31121;BME280;17770;45.966;13.632;2023-02-21T15:15:33;100939.78;;;15.55;61.84
31121;BME280;17770;45.966;13.632;2023-02-21T15:18:03;100932.81;;;15.55;61.68
31121;BME280;17770;45.966;13.632;2023-02-21T15:20:31;100932.81;;;15.55;61.48
31121;BME280;17770;45.966;13.632;2023-02-21T15:23:09;100938.00;;;15.55;61.63
31121;BME280;17770;45.966;13.632;2023-02-21T15:25:35;100925.06;;;15.54;61.64
31121;BME280;17770;45.966;13.632;2023-02-21T15:28:03;100927.66;;;15.54;61.70
31121;BME280;17770;45.966;13.632;2023-02-21T15:30:31;100922.41;;;15.55;61.57
31121;BME280;17770;45.966;13.632;2023-02-21T15:35:56;100932.69;;;15.58;61.77
31121;BME280;17770;45.966;13.632;2023-02-21T15:38:32;100923.19;;;15.57;61.81
31121;BME280;17770;45.966;13.632;2023-02-21T15:41:06;100926.66;;;15.58;61.83
31121;BME280;17770;45.966;13.632;2023-02-21T15:43:35;100925.78;;;15.57;61.85
31121;BME280;17770;45.966;13.632;2023-02-21T15:46:04;100928.41;;;15.57;61.30
31121;BME280;17770;45.966;13.632;2023-02-21T15:48:31;100925.78;;;15.57;61.56
31121;BME280;17770;45.966;13.632;2023-02-21T15:50:59;100917.94;;;15.59;61.93
31121;BME280;17770;45.966;13.632;2023-02-21T15:53:26;100915.34;;;15.59;61.71